Terminal Aerodrome Forecast
Issued by NWS Portland, OR

Home | Current Version | Previous Version | Text Only | Print | Product List | Glossary On
Versions: 1 2 3 4 5 6 7 8 9 10 11 12 13 14 15 16 17 18 19 20 21 22 23 24 25 26 27 28 29 30
000
FTUS46 KPQR 261737
TAFAST
TAF
KAST 261737Z 2618/2718 12007KT 5SM -RA BR BKN035 OVC050
     FM261900 17013KT 5SM -RA BR BKN015 OVC025
     FM262100 21010KT 6SM -SHRA BR BKN025 BKN040
     FM270100 22007KT P6SM -SHRA SCT025 BKN040=

USA.gov is the U.S. government's official web portal to all federal, state and local government web resources and services.